Time;durP1;ratioP1;P1;durP2;ratioP2;P2;SDS_P1;SDS_P2;PMS_P1;PMS_P2;Temp;Humidity;BMP_temperature;BMP_pressure;BME280_temperature;BME280_humidity;BME280_pressure;Samples;Min_cycle;Max_cycle;Signal;HPM_P1;HPM_P2
2021/12/12 00:01:33;;;;;;;19.80;6.10;;;6.50;99.90;;;;;;6216169;23;20167;-74
2021/12/12 00:04:10;;;;;;;21.60;6.63;;;6.50;99.90;;;;;;6215964;23;20163;-74
2021/12/12 00:06:40;;;;;;;12.47;5.60;;;6.50;99.90;;;;;;6216202;23;20167;-74
2021/12/12 00:09:11;;;;;;;20.57;6.30;;;6.50;99.90;;;;;;6216152;23;20163;-74
2021/12/12 00:11:38;;;;;;;17.87;5.87;;;6.50;99.90;;;;;;6216175;23;20170;-74
2021/12/12 00:14:09;;;;;;;20.87;6.20;;;6.50;99.90;;;;;;6216179;23;20487;-74
2021/12/12 00:16:37;;;;;;;16.73;6.00;;;6.50;99.90;;;;;;6215987;23;20166;-74
2021/12/12 00:19:05;;;;;;;18.03;5.87;;;6.50;99.90;;;;;;6216681;23;20167;-74
2021/12/12 00:21:34;;;;;;;17.23;6.37;;;6.60;99.90;;;;;;6215945;23;20186;-75
2021/12/12 00:24:03;;;;;;;18.73;5.87;;;6.60;99.90;;;;;;6216613;23;20163;-74
2021/12/12 00:26:30;;;;;;;16.63;6.63;;;6.60;99.90;;;;;;6216635;23;20273;-73
2021/12/12 00:28:57;;;;;;;21.77;6.03;;;6.60;99.90;;;;;;6215787;23;20607;-76
2021/12/12 00:31:25;;;;;;;18.67;5.57;;;6.70;99.90;;;;;;6215555;23;20174;-76
2021/12/12 00:33:57;;;;;;;19.27;5.63;;;6.70;99.90;;;;;;6216248;23;20182;-78
2021/12/12 00:36:26;;;;;;;16.60;5.43;;;6.70;99.90;;;;;;6215973;23;20202;-74
2021/12/12 00:38:58;;;;;;;24.23;6.33;;;6.70;99.90;;;;;;6215772;23;20481;-74
2021/12/12 00:41:30;;;;;;;19.73;6.87;;;6.60;99.90;;;;;;6215686;23;20163;-75
2021/12/12 00:44:00;;;;;;;26.70;7.23;;;6.60;99.90;;;;;;6216370;23;20170;-73
2021/12/12 00:46:27;;;;;;;15.33;7.00;;;6.70;99.90;;;;;;6215694;23;20163;-73
2021/12/12 00:48:56;;;;;;;23.57;6.60;;;6.70;99.90;;;;;;6215514;23;20171;-74
2021/12/12 00:51:30;;;;;;;24.43;6.40;;;6.60;99.90;;;;;;6216420;23;20171;-73
2021/12/12 00:53:58;;;;;;;15.50;6.50;;;6.60;99.90;;;;;;6216080;23;20179;-74
2021/12/12 00:56:25;;;;;;;23.20;7.00;;;6.50;99.90;;;;;;6216154;23;20163;-73
2021/12/12 00:58:53;;;;;;;21.17;6.53;;;6.50;99.90;;;;;;6216581;23;20170;-79
2021/12/12 01:01:25;;;;;;;26.47;6.40;;;6.60;99.90;;;;;;6215807;23;20171;-76
2021/12/12 01:03:56;;;;;;;18.27;6.13;;;6.70;99.90;;;;;;6215547;23;20230;-76
2021/12/12 01:06:25;;;;;;;24.23;7.20;;;6.60;99.90;;;;;;6214489;23;20178;-79
2021/12/12 01:08:54;;;;;;;18.70;6.83;;;6.60;99.90;;;;;;6215932;23;20583;-74
2021/12/12 01:11:30;;;;;;;16.23;6.00;;;6.60;99.90;;;;;;6216121;23;20170;-74
2021/12/12 01:13:58;;;;;;;19.00;5.87;;;6.60;99.90;;;;;;6215214;23;20170;-75
2021/12/12 01:16:30;;;;;;;19.67;6.30;;;6.60;99.90;;;;;;6216166;23;20246;-76
2021/12/12 01:19:02;;;;;;;22.30;6.73;;;6.60;99.90;;;;;;6215714;23;20540;-75
2021/12/12 01:21:34;;;;;;;19.50;6.97;;;6.60;99.90;;;;;;6215717;23;20560;-74
2021/12/12 01:24:05;;;;;;;17.23;6.17;;;6.60;99.90;;;;;;6216708;23;20202;-78
2021/12/12 01:26:33;;;;;;;21.57;6.00;;;6.70;99.90;;;;;;6215367;23;20625;-73
2021/12/12 01:29:01;;;;;;;22.83;6.80;;;6.70;99.90;;;;;;6215339;23;20466;-74
2021/12/12 01:31:32;;;;;;;17.30;6.20;;;6.70;99.90;;;;;;6215889;23;20170;-73
2021/12/12 01:34:11;;;;;;;26.50;6.77;;;6.70;99.90;;;;;;6215934;23;20246;-75
2021/12/12 01:36:52;;;;;;;21.27;6.37;;;6.70;99.90;;;;;;6215587;23;20676;-74
2021/12/12 01:39:22;;;;;;;18.30;6.33;;;6.80;99.90;;;;;;6216246;23;20246;-74
2021/12/12 01:41:55;;;;;;;21.87;6.43;;;6.70;99.90;;;;;;6216067;23;20163;-73
2021/12/12 01:44:26;;;;;;;13.73;6.60;;;6.70;99.90;;;;;;6215033;23;20625;-74
2021/12/12 01:46:59;;;;;;;19.80;6.23;;;6.70;99.90;;;;;;6216012;23;20198;-73
2021/12/12 01:49:28;;;;;;;17.23;5.83;;;6.70;99.90;;;;;;6215623;23;20162;-74
2021/12/12 01:51:57;;;;;;;21.33;6.27;;;6.80;99.90;;;;;;6215631;23;20241;-76
2021/12/12 01:54:29;;;;;;;20.57;6.73;;;6.70;99.90;;;;;;6215671;23;20236;-79
2021/12/12 01:57:02;;;;;;;22.00;5.73;;;6.80;99.90;;;;;;6216156;23;20167;-82
2021/12/12 01:59:32;;;;;;;18.43;5.93;;;6.80;99.90;;;;;;6216151;23;20175;-85
2021/12/12 02:02:04;;;;;;;14.73;5.90;;;6.90;99.90;;;;;;6216325;23;20178;-75
2021/12/12 02:04:36;;;;;;;18.37;6.60;;;6.90;99.90;;;;;;6215840;23;20467;-81
2021/12/12 02:07:05;;;;;;;16.90;5.73;;;6.80;99.90;;;;;;6217778;23;20171;-74
2021/12/12 02:09:33;;;;;;;18.97;5.40;;;6.80;99.90;;;;;;6217034;23;20186;-79
2021/12/12 02:12:02;;;;;;;13.93;6.20;;;6.80;99.90;;;;;;6218097;23;20436;-82
2021/12/12 02:14:32;;;;;;;20.50;6.27;;;6.80;99.90;;;;;;6217645;23;20185;-85
2021/12/12 02:17:05;;;;;;;18.50;6.47;;;6.90;99.90;;;;;;6217719;23;20174;-80
2021/12/12 02:19:43;;;;;;;17.10;5.90;;;6.90;99.90;;;;;;6216533;23;20241;-75
2021/12/12 02:22:35;;;;;;;21.07;5.83;;;6.90;99.90;;;;;;6216426;23;20214;-75
2021/12/12 02:36:12;;;;;;;18.97;7.37;;;6.90;99.90;;;;;;6220150;23;20165;-77
2021/12/12 02:38:42;;;;;;;17.90;7.13;;;6.90;99.90;;;;;;6219144;23;20534;-83
2021/12/12 02:41:18;;;;;;;18.93;7.33;;;6.90;99.90;;;;;;6219510;23;20163;-87
2021/12/12 02:44:04;;;;;;;17.80;7.47;;;6.90;99.90;;;;;;6219145;23;20201;-87
2021/12/12 02:46:36;;;;;;;19.37;7.27;;;6.90;99.90;;;;;;6220048;23;20169;-81
2021/12/12 02:49:22;;;;;;;15.07;6.33;;;6.90;99.90;;;;;;6219899;23;20162;-87
2021/12/12 02:52:03;;;;;;;18.27;6.60;;;7.00;99.90;;;;;;6219662;23;20221;-90
2021/12/12 02:54:35;;;;;;;18.43;7.20;;;6.90;99.90;;;;;;6219288;23;20163;-88
2021/12/12 02:57:04;;;;;;;10.90;6.67;;;6.90;99.90;;;;;;6219121;23;20167;-85
2021/12/12 02:59:36;;;;;;;11.70;6.57;;;6.90;99.90;;;;;;6218282;23;20163;-87
2021/12/12 03:02:06;;;;;;;18.27;6.87;;;6.90;99.90;;;;;;6218672;23;20175;-82
2021/12/12 03:04:35;;;;;;;13.40;7.63;;;7.00;99.90;;;;;;6218755;23;20652;-83
2021/12/12 03:07:03;;;;;;;11.23;6.80;;;6.90;99.90;;;;;;6219033;23;20181;-80
2021/12/12 03:09:32;;;;;;;11.77;6.83;;;7.00;99.90;;;;;;6219965;23;20185;-90
2021/12/12 03:12:04;;;;;;;10.40;6.23;;;7.00;99.90;;;;;;6218145;23;20163;-86
2021/12/12 03:14:40;;;;;;;10.07;6.27;;;7.00;99.90;;;;;;6218466;23;20171;-87
2021/12/12 03:17:11;;;;;;;9.50;6.63;;;7.00;99.90;;;;;;6217626;23;20246;-88
2021/12/12 03:19:38;;;;;;;10.90;7.17;;;7.00;99.90;;;;;;6217829;23;20163;-88
2021/12/12 03:22:09;;;;;;;9.20;6.80;;;6.90;99.90;;;;;;6218408;23;20188;-88
2021/12/12 03:24:41;;;;;;;12.35;9.05;;;7.00;99.90;;;;;;6217254;23;20414;-83
2021/12/12 03:27:13;;;;;;;9.73;7.83;;;7.00;99.90;;;;;;6218053;23;20173;-82
2021/12/12 03:29:41;;;;;;;10.37;7.90;;;7.10;99.90;;;;;;6218746;23;20163;-84
2021/12/12 03:32:11;;;;;;;10.63;7.23;;;7.10;99.90;;;;;;6219071;23;20215;-82
2021/12/12 03:34:47;;;;;;;12.97;7.33;;;7.10;99.90;;;;;;6218676;23;20179;-88
2021/12/12 03:37:31;;;;;;;13.10;7.87;;;7.10;99.90;;;;;;6217948;23;20169;-84
2021/12/12 03:40:01;;;;;;;13.47;8.23;;;7.10;99.90;;;;;;6217723;23;20163;-77
2021/12/12 03:42:31;;;;;;;12.63;7.30;;;7.10;99.90;;;;;;6217130;23;20163;-75
2021/12/12 03:45:01;;;;;;;10.83;8.23;;;7.00;99.90;;;;;;6217461;23;20598;-79
2021/12/12 03:47:30;;;;;;;13.13;8.50;;;7.00;99.90;;;;;;6216169;23;20163;-75
2021/12/12 03:50:01;;;;;;;10.13;8.23;;;7.00;99.90;;;;;;6215336;23;20250;-74
2021/12/12 03:52:29;;;;;;;14.77;9.10;;;7.00;99.90;;;;;;6215617;23;20170;-74
2021/12/12 03:54:59;;;;;;;12.97;9.03;;;7.00;99.90;;;;;;6215453;23;20171;-74
2021/12/12 03:57:30;;;;;;;13.10;9.20;;;7.00;99.90;;;;;;6215592;23;20777;-74
2021/12/12 03:59:59;;;;;;;10.40;9.30;;;7.00;99.90;;;;;;6215778;23;20170;-73
2021/12/12 04:02:27;;;;;;;14.37;10.20;;;7.00;99.90;;;;;;6215645;23;20167;-74
2021/12/12 04:04:54;;;;;;;12.90;9.77;;;7.00;99.90;;;;;;6215529;23;20203;-75
2021/12/12 04:07:23;;;;;;;14.67;9.40;;;7.00;99.90;;;;;;6215976;23;20174;-74
2021/12/12 04:09:51;;;;;;;14.47;9.83;;;7.10;99.90;;;;;;6214835;23;20170;-74
2021/12/12 04:12:21;;;;;;;15.00;10.43;;;7.00;99.90;;;;;;6215872;23;20170;-74
2021/12/12 04:14:52;;;;;;;13.53;10.00;;;7.00;99.90;;;;;;6216097;23;20182;-74
2021/12/12 04:17:21;;;;;;;12.83;9.40;;;7.10;99.90;;;;;;6217548;23;20162;-74
2021/12/12 04:19:52;;;;;;;11.37;9.20;;;7.10;99.90;;;;;;6218948;23;20162;-76
2021/12/12 04:22:19;;;;;;;11.53;8.70;;;7.00;99.90;;;;;;6217261;23;20173;-75
2021/12/12 04:24:49;;;;;;;10.27;9.17;;;7.10;99.90;;;;;;6216351;23;20200;-74
2021/12/12 04:27:17;;;;;;;10.83;8.50;;;7.10;99.90;;;;;;6216621;23;20169;-74
2021/12/12 04:29:46;;;;;;;9.90;8.50;;;7.20;99.90;;;;;;6216504;23;20587;-73
2021/12/12 04:32:17;;;;;;;10.27;9.27;;;7.10;99.90;;;;;;6216337;23;20465;-75
2021/12/12 04:34:47;;;;;;;10.30;9.23;;;7.20;99.90;;;;;;6216313;23;20171;-74
2021/12/12 04:37:15;;;;;;;11.30;8.67;;;7.20;99.90;;;;;;6215497;23;20174;-76
2021/12/12 04:39:48;;;;;;;14.88;11.63;;;7.10;99.90;;;;;;6214472;23;20921;-74
2021/12/12 04:42:18;;;;;;;11.93;10.73;;;7.20;99.90;;;;;;6216190;23;20163;-74
2021/12/12 04:44:48;;;;;;;9.80;8.90;;;7.20;99.90;;;;;;6215852;23;20595;-75
2021/12/12 04:50:16;;;;;;;12.63;9.10;;;7.30;99.90;;;;;;6216062;23;20174;-74
2021/12/12 04:52:48;;;;;;;9.73;8.73;;;7.20;99.90;;;;;;6215954;23;20172;-75
2021/12/12 04:55:21;;;;;;;10.53;8.93;;;7.20;99.90;;;;;;6215888;23;20595;-74
2021/12/12 04:57:58;;;;;;;11.27;8.70;;;7.30;99.90;;;;;;6215522;23;20174;-74
2021/12/12 05:00:31;;;;;;;10.23;8.70;;;7.20;99.90;;;;;;6216302;23;20170;-73
2021/12/12 05:03:06;;;;;;;10.10;9.13;;;7.10;99.90;;;;;;6215826;23;20170;-74
2021/12/12 05:05:40;;;;;;;9.43;8.43;;;7.20;99.90;;;;;;6216845;23;20194;-86
2021/12/12 05:08:11;;;;;;;10.17;9.17;;;7.10;99.90;;;;;;6215539;23;20185;-74
2021/12/12 05:10:42;;;;;;;9.73;8.73;;;7.20;99.90;;;;;;6217505;23;20163;-83
2021/12/12 05:13:14;;;;;;;9.20;8.37;;;7.20;99.90;;;;;;6219208;23;20182;-77
2021/12/12 05:15:46;;;;;;;10.23;8.60;;;7.20;99.90;;;;;;6217633;23;20155;-78
2021/12/12 05:18:19;;;;;;;9.03;8.20;;;7.20;99.90;;;;;;6218384;23;20194;-84
2021/12/12 05:20:50;;;;;;;10.20;8.43;;;7.20;99.90;;;;;;6217361;23;20555;-82
2021/12/12 05:23:21;;;;;;;8.80;8.00;;;7.20;99.90;;;;;;6217799;23;20213;-82
2021/12/12 05:25:51;;;;;;;8.53;7.40;;;7.30;99.90;;;;;;6217632;23;20182;-87
2021/12/12 05:28:21;;;;;;;10.50;8.00;;;7.30;99.90;;;;;;6218898;23;20218;-85
2021/12/12 05:30:50;;;;;;;9.83;8.07;;;7.30;99.90;;;;;;6218476;23;20205;-85
2021/12/12 05:33:25;;;;;;;9.20;8.30;;;7.30;99.90;;;;;;6216492;23;20611;-87
2021/12/12 05:35:54;;;;;;;8.30;7.57;;;7.40;99.90;;;;;;6217223;23;20171;-84
2021/12/12 05:38:22;;;;;;;9.00;7.57;;;7.30;99.90;;;;;;6217555;23;20170;-82
2021/12/12 05:40:50;;;;;;;8.67;7.93;;;7.40;99.90;;;;;;6217245;23;20162;-85
2021/12/12 05:43:18;;;;;;;9.67;8.53;;;7.40;99.90;;;;;;6217594;23;20514;-84
2021/12/12 05:45:46;;;;;;;8.53;7.73;;;7.40;99.90;;;;;;6219142;23;20169;-83
2021/12/12 05:48:14;;;;;;;13.03;8.27;;;7.40;99.90;;;;;;6217507;23;20163;-86
2021/12/12 05:50:45;;;;;;;14.80;9.27;;;7.40;99.90;;;;;;6216694;23;20493;-81
2021/12/12 05:53:15;;;;;;;10.63;8.53;;;7.40;99.90;;;;;;6216838;23;20163;-85
2021/12/12 05:55:51;;;;;;;14.40;9.23;;;7.40;99.90;;;;;;6217541;23;20182;-85
2021/12/12 05:58:21;;;;;;;14.00;9.93;;;7.40;99.90;;;;;;6217385;23;20164;-87
2021/12/12 06:00:51;;;;;;;17.27;10.50;;;7.40;99.90;;;;;;6218394;23;20261;-88
2021/12/12 06:03:22;;;;;;;14.33;10.40;;;7.50;99.90;;;;;;6219020;23;20174;-84
2021/12/12 06:05:59;;;;;;;16.67;10.57;;;7.40;99.90;;;;;;6219395;23;20198;-81
2021/12/12 06:08:29;;;;;;;13.93;9.93;;;7.40;99.90;;;;;;6219177;23;20174;-87
2021/12/12 06:10:56;;;;;;;17.00;11.27;;;7.50;99.90;;;;;;6219783;23;20186;-84
2021/12/12 06:13:23;;;;;;;17.87;12.10;;;7.50;99.90;;;;;;6219517;23;20174;-85
2021/12/12 06:15:54;;;;;;;15.80;11.43;;;7.40;99.90;;;;;;6218953;23;20167;-86
2021/12/12 06:18:25;;;;;;;17.67;11.70;;;7.50;99.90;;;;;;6218768;23;20254;-85
2021/12/12 06:20:53;;;;;;;27.17;13.07;;;7.50;99.90;;;;;;6218431;23;20194;-86
2021/12/12 06:23:25;;;;;;;22.83;13.07;;;7.50;99.90;;;;;;6218869;23;20175;-83
2021/12/12 06:25:54;;;;;;;20.77;12.67;;;7.50;99.90;;;;;;6218800;23;20178;-81
2021/12/12 06:28:30;;;;;;;21.57;12.43;;;7.50;99.90;;;;;;6218375;23;20170;-88
2021/12/12 06:31:00;;;;;;;20.00;12.77;;;7.60;99.90;;;;;;6218727;23;20189;-82
2021/12/12 06:33:28;;;;;;;20.83;12.37;;;7.60;99.90;;;;;;6218781;23;20250;-86
2021/12/12 06:35:58;;;;;;;23.47;12.67;;;7.70;99.90;;;;;;6218533;23;20607;-83
2021/12/12 06:38:35;;;;;;;24.20;12.60;;;7.70;99.90;;;;;;6218310;23;20493;-86
2021/12/12 06:41:09;;;;;;;28.97;13.83;;;7.60;99.90;;;;;;6218332;23;20198;-86
2021/12/12 06:43:41;;;;;;;21.33;12.20;;;7.60;99.90;;;;;;6217969;23;20197;-85
2021/12/12 06:46:11;;;;;;;21.97;12.50;;;7.60;99.90;;;;;;6218900;23;20221;-86
2021/12/12 06:48:39;;;;;;;27.13;12.47;;;7.60;99.90;;;;;;6218503;23;20185;-86
2021/12/12 06:51:07;;;;;;;29.23;14.20;;;7.60;99.90;;;;;;6218558;23;20163;-85
2021/12/12 06:53:41;;;;;;;33.43;13.97;;;7.60;99.90;;;;;;6217757;23;20171;-86
2021/12/12 06:56:14;;;;;;;25.33;13.27;;;7.60;99.90;;;;;;6218224;23;20166;-85
2021/12/12 06:58:48;;;;;;;30.07;13.67;;;7.60;99.90;;;;;;6218450;23;20163;-85
2021/12/12 07:01:18;;;;;;;25.07;14.20;;;7.70;99.90;;;;;;6218073;23;20216;-84
2021/12/12 07:03:47;;;;;;;28.73;13.57;;;7.70;99.90;;;;;;6218019;23;20187;-84
2021/12/12 07:06:18;;;;;;;35.13;14.90;;;7.80;99.90;;;;;;6217877;23;20422;-87
2021/12/12 07:08:54;;;;;;;28.43;14.30;;;7.90;99.90;;;;;;6217790;23;20163;-83
2021/12/12 07:11:28;;;;;;;31.13;14.80;;;7.80;99.90;;;;;;6217558;23;20221;-84
2021/12/12 07:14:01;;;;;;;33.37;14.33;;;7.80;99.90;;;;;;6217972;23;20189;-87
2021/12/12 07:16:29;;;;;;;25.80;14.50;;;7.90;99.90;;;;;;6218232;23;20171;-83
2021/12/12 07:18:58;;;;;;;31.90;14.97;;;7.90;99.90;;;;;;6217084;23;20634;-83
2021/12/12 07:21:26;;;;;;;29.40;14.43;;;7.80;99.90;;;;;;6217413;23;20194;-75
2021/12/12 07:23:58;;;;;;;38.60;16.13;;;7.80;99.90;;;;;;6217419;23;20195;-86
2021/12/12 07:26:32;;;;;;;35.87;15.10;;;7.90;99.90;;;;;;6217523;23;20163;-84
2021/12/12 07:29:01;;;;;;;30.37;14.90;;;7.80;99.90;;;;;;6217383;23;20221;-82
2021/12/12 07:31:31;;;;;;;31.80;14.50;;;7.90;99.90;;;;;;6216963;23;20167;-87
2021/12/12 07:34:03;;;;;;;28.40;14.00;;;7.90;99.90;;;;;;6216740;23;20480;-82
2021/12/12 07:36:36;;;;;;;29.63;14.00;;;7.90;99.90;;;;;;6218017;23;20181;-84
2021/12/12 07:39:12;;;;;;;35.47;14.93;;;7.90;99.90;;;;;;6216974;23;20166;-86
2021/12/12 07:41:48;;;;;;;30.70;15.17;;;8.00;99.90;;;;;;6218084;23;20163;-83
2021/12/12 07:44:20;;;;;;;40.33;19.88;;;8.00;99.90;;;;;;6216540;23;20422;-86
2021/12/12 07:46:49;;;;;;;36.10;16.73;;;8.10;99.90;;;;;;6217053;23;20167;-79
2021/12/12 07:49:20;;;;;;;38.37;17.00;;;8.10;99.90;;;;;;6217643;23;20171;-80
2021/12/12 07:51:47;;;;;;;36.47;16.50;;;8.10;99.90;;;;;;6216621;23;20178;-75
2021/12/12 07:54:16;;;;;;;34.37;16.80;;;8.10;99.90;;;;;;6217033;23;20483;-78
2021/12/12 07:56:46;;;;;;;33.93;16.90;;;8.10;99.90;;;;;;6217094;23;20207;-73
2021/12/12 07:59:17;;;;;;;38.83;17.40;;;8.10;99.90;;;;;;6216847;23;20163;-77
2021/12/12 08:01:47;;;;;;;34.00;16.43;;;8.10;99.90;;;;;;6216262;23;20166;-75
2021/12/12 08:04:16;;;;;;;37.57;16.23;;;8.10;99.90;;;;;;6216182;23;20214;-80
2021/12/12 08:06:45;;;;;;;37.60;16.17;;;8.10;99.90;;;;;;6216470;23;20178;-77
2021/12/12 08:09:12;;;;;;;36.10;15.87;;;8.10;99.90;;;;;;6216046;23;20167;-74
2021/12/12 08:11:43;;;;;;;31.83;17.20;;;8.10;99.90;;;;;;6216596;23;20174;-75
2021/12/12 08:14:16;;;;;;;34.23;18.27;;;8.00;99.90;;;;;;6217050;23;20171;-85
2021/12/12 08:16:44;;;;;;;33.27;16.80;;;8.00;99.90;;;;;;6216507;23;20162;-75
2021/12/12 08:19:14;;;;;;;34.17;16.83;;;8.00;99.90;;;;;;6216407;23;20167;-81
2021/12/12 08:21:43;;;;;;;32.57;16.90;;;8.10;99.90;;;;;;6216399;23;20183;-76
2021/12/12 08:24:12;;;;;;;30.73;15.07;;;8.10;99.90;;;;;;6216392;23;20201;-78
2021/12/12 08:26:43;;;;;;;27.83;15.40;;;8.10;99.90;;;;;;6215871;23;20170;-77
2021/12/12 08:29:12;;;;;;;35.57;16.40;;;8.10;99.90;;;;;;6215708;23;20955;-75
2021/12/12 08:31:39;;;;;;;30.00;15.00;;;8.10;99.90;;;;;;6216373;23;20170;-74
2021/12/12 08:34:09;;;;;;;31.13;15.30;;;8.20;99.90;;;;;;6215721;23;20638;-77
2021/12/12 08:36:39;;;;;;;26.87;14.53;;;8.20;99.90;;;;;;6215807;23;20174;-76
2021/12/12 08:39:07;;;;;;;28.47;14.90;;;8.10;99.90;;;;;;6216075;23;20167;-79
2021/12/12 08:41:35;;;;;;;27.10;14.30;;;8.20;99.90;;;;;;6215469;23;20163;-80
2021/12/12 08:44:04;;;;;;;30.17;15.63;;;8.30;99.90;;;;;;6215126;23;20245;-79
2021/12/12 08:46:32;;;;;;;31.97;15.93;;;8.30;99.90;;;;;;6215885;23;20163;-77
2021/12/12 08:49:01;;;;;;;29.40;15.17;;;8.40;99.90;;;;;;6215707;23;20163;-77
2021/12/12 08:51:32;;;;;;;23.73;14.10;;;8.30;99.90;;;;;;6216461;23;20174;-75
2021/12/12 08:54:11;;;;;;;27.47;14.90;;;8.30;99.90;;;;;;6216783;23;20225;-74
2021/12/12 08:56:44;;;;;;;30.30;14.90;;;8.30;99.90;;;;;;6216222;23;20162;-76
2021/12/12 08:59:16;;;;;;;28.77;14.60;;;8.40;99.90;;;;;;6216136;23;20189;-76
2021/12/12 09:01:43;;;;;;;29.33;15.50;;;8.40;99.90;;;;;;6215838;23;20179;-78
2021/12/12 09:04:12;;;;;;;25.80;14.67;;;8.40;99.90;;;;;;6215895;23;20201;-78
2021/12/12 09:06:43;;;;;;;29.93;15.37;;;8.50;99.90;;;;;;6216013;23;20186;-74
2021/12/12 09:09:16;;;;;;;31.53;15.67;;;8.50;99.90;;;;;;6215354;23;20602;-83
2021/12/12 09:11:49;;;;;;;30.93;15.83;;;8.50;99.90;;;;;;6215800;23;20193;-79
2021/12/12 09:14:21;;;;;;;23.00;14.70;;;8.50;99.90;;;;;;6215475;23;20254;-78
2021/12/12 09:16:55;;;;;;;25.30;14.80;;;8.50;99.90;;;;;;6215440;23;20206;-77
2021/12/12 09:19:27;;;;;;;25.80;15.47;;;8.60;99.90;;;;;;6215341;23;20626;-79
2021/12/12 09:22:00;;;;;;;22.17;14.77;;;8.60;99.90;;;;;;6215167;23;20707;-77
2021/12/12 09:24:44;;;;;;;30.47;15.47;;;8.60;99.90;;;;;;6215663;23;20385;-79
2021/12/12 09:27:14;;;;;;;24.73;14.93;;;8.60;99.90;;;;;;6215356;23;20198;-78
2021/12/12 09:29:49;;;;;;;28.67;15.70;;;8.70;99.90;;;;;;6215843;23;20166;-77
2021/12/12 09:32:26;;;;;;;29.97;14.87;;;8.70;99.90;;;;;;6215157;23;20174;-79
2021/12/12 09:34:58;;;;;;;26.93;17.17;;;8.70;99.90;;;;;;6214948;23;20159;-79
2021/12/12 09:37:33;;;;;;;33.30;19.75;;;8.70;99.90;;;;;;6214443;23;20384;-78
2021/12/12 09:40:08;;;;;;;29.27;16.33;;;8.80;99.90;;;;;;6215430;23;20170;-77
2021/12/12 09:42:59;;;;;;;31.37;17.00;;;8.70;99.90;;;;;;6215281;23;20174;-80
2021/12/12 09:46:01;;;;;;;25.07;15.90;;;8.90;99.90;;;;;;6214974;23;20190;-80
2021/12/12 09:52:10;;;;;;;28.23;15.50;;;8.90;99.90;;;;;;6215690;23;20165;-75
2021/12/12 09:54:44;;;;;;;33.13;16.07;;;8.90;99.90;;;;;;6215623;23;20186;-75
2021/12/12 09:57:15;;;;;;;31.67;15.80;;;8.80;99.90;;;;;;6215214;23;20190;-76
2021/12/12 10:00:01;;;;;;;30.87;17.07;;;8.90;99.90;;;;;;6215512;23;20269;-79
2021/12/12 10:02:35;;;;;;;37.67;20.50;;;9.00;99.90;;;;;;6214235;23;20391;-75
2021/12/12 10:05:25;;;;;;;33.33;18.93;;;9.00;99.90;;;;;;6214586;23;20260;-75
2021/12/12 10:08:02;;;;;;;31.00;18.73;;;9.00;99.90;;;;;;6214519;23;20206;-75
2021/12/12 10:10:33;;;;;;;34.17;18.77;;;9.00;99.90;;;;;;6214048;23;20174;-76
2021/12/12 10:13:08;;;;;;;33.57;19.53;;;9.10;99.90;;;;;;6213963;23;20166;-76
2021/12/12 10:15:43;;;;;;;33.73;19.57;;;9.00;99.90;;;;;;6214221;23;20472;-77
2021/12/12 10:18:19;;;;;;;33.20;19.80;;;9.10;99.90;;;;;;6214915;23;20162;-73
2021/12/12 10:20:56;;;;;;;35.27;19.50;;;9.10;99.90;;;;;;6214636;23;20264;-77
2021/12/12 10:23:33;;;;;;;39.47;20.63;;;9.10;99.90;;;;;;6214721;23;20249;-76
2021/12/12 10:26:05;;;;;;;38.30;21.57;;;9.20;99.90;;;;;;6214501;23;20626;-74
2021/12/12 10:28:38;;;;;;;36.67;20.70;;;9.20;99.90;;;;;;6214921;23;20486;-77
2021/12/12 10:31:17;;;;;;;34.90;21.43;;;9.10;99.90;;;;;;6214876;23;20167;-74
2021/12/12 10:33:49;;;;;;;35.87;18.90;;;9.10;99.90;;;;;;6215207;23;20307;-79
2021/12/12 10:36:19;;;;;;;37.30;22.83;;;9.10;99.90;;;;;;6215163;23;20175;-82
2021/12/12 10:38:53;;;;;;;39.63;21.73;;;9.10;99.90;;;;;;6215375;23;20166;-81
2021/12/12 10:41:26;;;;;;;38.03;21.33;;;9.20;99.90;;;;;;6213262;23;20174;-78
2021/12/12 10:43:59;;;;;;;32.10;20.33;;;9.20;99.90;;;;;;6214247;23;20175;-75
2021/12/12 10:46:38;;;;;;;33.23;21.40;;;9.20;99.90;;;;;;6216262;23;20194;-79
2021/12/12 10:49:15;;;;;;;33.53;20.37;;;9.30;99.90;;;;;;6216748;23;20167;-74
2021/12/12 10:51:46;;;;;;;37.33;21.17;;;9.40;99.90;;;;;;6216679;23;20190;-77
2021/12/12 10:54:20;;;;;;;37.50;26.00;;;9.40;99.90;;;;;;6214853;23;20859;-76
2021/12/12 10:56:56;;;;;;;34.07;20.83;;;9.50;99.90;;;;;;6215721;23;20163;-78
2021/12/12 10:59:28;;;;;;;37.97;23.23;;;9.50;99.90;;;;;;6215987;23;20171;-78
2021/12/12 11:01:59;;;;;;;35.13;21.00;;;9.50;99.90;;;;;;6216155;23;20173;-79
2021/12/12 11:04:38;;;;;;;29.77;21.00;;;9.50;99.90;;;;;;6216131;23;20217;-80
2021/12/12 11:07:08;;;;;;;30.83;20.97;;;9.60;99.90;;;;;;6216272;23;20170;-75
2021/12/12 11:09:42;;;;;;;33.40;20.80;;;9.60;99.90;;;;;;6215380;23;20185;-78
2021/12/12 11:12:13;;;;;;;33.20;21.90;;;9.60;99.90;;;;;;6216004;23;20177;-76
2021/12/12 11:14:53;;;;;;;29.17;20.17;;;9.70;99.90;;;;;;6216693;23;20186;-73
2021/12/12 11:17:38;;;;;;;31.37;21.37;;;9.70;99.90;;;;;;6215531;23;20163;-77
2021/12/12 11:20:13;;;;;;;30.30;20.40;;;9.70;99.90;;;;;;6216249;23;20162;-79
2021/12/12 11:22:44;;;;;;;35.47;22.43;;;9.70;99.90;;;;;;6216430;23;20175;-76
2021/12/12 11:25:18;;;;;;;31.70;21.37;;;9.80;99.90;;;;;;6215786;23;20303;-76
2021/12/12 11:27:48;;;;;;;28.00;20.83;;;9.80;99.90;;;;;;6216261;23;20245;-73
2021/12/12 11:30:21;;;;;;;33.03;21.30;;;9.70;99.90;;;;;;6215739;23;20181;-74
2021/12/12 11:32:50;;;;;;;29.47;21.13;;;9.80;99.90;;;;;;6216407;23;20217;-75
2021/12/12 11:35:22;;;;;;;35.60;23.00;;;9.90;99.90;;;;;;6215957;23;20204;-76
2021/12/12 11:37:55;;;;;;;33.30;22.13;;;9.90;99.90;;;;;;6215617;23;20512;-76
2021/12/12 11:40:29;;;;;;;32.97;21.80;;;10.10;99.90;;;;;;6215172;23;20174;-78
2021/12/12 11:43:02;;;;;;;31.17;21.60;;;10.00;99.90;;;;;;6215897;23;20488;-79
2021/12/12 11:45:32;;;;;;;23.77;19.90;;;10.00;99.90;;;;;;6215650;23;20250;-81
2021/12/12 11:48:12;;;;;;;27.60;20.93;;;10.00;99.90;;;;;;6215715;23;20174;-80
2021/12/12 11:50:50;;;;;;;26.40;20.43;;;10.10;99.90;;;;;;6215962;23;20167;-80
2021/12/12 11:53:24;;;;;;;25.30;20.17;;;10.20;99.90;;;;;;6215429;23;20202;-80
2021/12/12 11:55:55;;;;;;;27.10;20.83;;;10.30;99.90;;;;;;6215084;23;20173;-78
2021/12/12 11:58:30;;;;;;;27.70;20.30;;;10.30;99.90;;;;;;6214543;23;20175;-77
2021/12/12 12:01:06;;;;;;;24.83;19.80;;;10.40;99.90;;;;;;6215348;23;20166;-80
2021/12/12 12:03:47;;;;;;;24.30;20.67;;;10.40;99.90;;;;;;6215718;23;20174;-74
2021/12/12 12:06:23;;;;;;;23.13;18.83;;;10.40;99.90;;;;;;6215446;23;20551;-76
2021/12/12 12:09:11;;;;;;;23.80;19.43;;;10.40;99.90;;;;;;6215390;23;20611;-74
2021/12/12 12:12:03;;;;;;;21.90;19.00;;;10.40;99.90;;;;;;6215374;23;20175;-81
2021/12/12 12:14:36;;;;;;;20.37;18.17;;;10.40;99.90;;;;;;6215314;23;20170;-78
2021/12/12 12:17:09;;;;;;;22.50;18.27;;;10.40;99.90;;;;;;6215896;23;20178;-77
2021/12/12 12:19:49;;;;;;;20.47;17.73;;;10.50;99.90;;;;;;6216195;23;20225;-76
2021/12/12 12:22:32;;;;;;;19.87;17.07;;;10.50;99.90;;;;;;6215213;23;20630;-79
2021/12/12 12:25:14;;;;;;;20.00;18.00;;;10.60;99.90;;;;;;6215632;23;20509;-78
2021/12/12 12:27:49;;;;;;;22.10;16.40;;;10.60;99.90;;;;;;6214676;23;20198;-79
2021/12/12 12:30:49;;;;;;;21.33;19.13;;;10.70;99.90;;;;;;6214983;23;20391;-78
2021/12/12 12:33:58;;;;;;;18.73;16.20;;;10.60;99.90;;;;;;6215619;23;20174;-77
2021/12/12 12:37:03;;;;;;;18.27;16.37;;;10.60;99.90;;;;;;6214856;23;20182;-79
2021/12/12 12:40:06;;;;;;;17.33;15.53;;;10.70;99.90;;;;;;6215793;23;20173;-75
2021/12/12 12:43:06;;;;;;;16.20;14.03;;;10.70;99.90;;;;;;6216006;23;20169;-82
2021/12/12 12:46:19;;;;;;;16.77;15.00;;;10.70;99.90;;;;;;6215629;23;20295;-82
2021/12/12 12:49:24;;;;;;;14.13;12.77;;;10.70;99.90;;;;;;6215470;23;20185;-78
2021/12/12 12:52:34;;;;;;;16.53;14.93;;;10.90;99.90;;;;;;6214884;23;20173;-78
2021/12/12 12:55:36;;;;;;;14.83;13.47;;;10.90;99.90;;;;;;6184762;23;20197;-80
2021/12/12 12:58:21;;;;;;;15.73;14.13;;;10.80;99.90;;;;;;6215137;23;20162;-81
2021/12/12 13:00:51;;;;;;;16.97;14.00;;;10.80;99.90;;;;;;6214967;23;20167;-76
2021/12/12 13:03:31;;;;;;;17.17;14.50;;;11.00;99.90;;;;;;6214491;23;20728;-78
2021/12/12 13:06:46;;;;;;;17.30;13.87;;;10.90;99.90;;;;;;6214030;23;20207;-78
2021/12/12 13:09:31;;;;;;;13.90;12.37;;;11.00;99.90;;;;;;6214407;23;20627;-76
2021/12/12 13:12:35;;;;;;;14.97;13.23;;;11.00;99.90;;;;;;6214966;23;20638;-76
2021/12/12 13:15:14;;;;;;;13.80;12.40;;;11.00;99.90;;;;;;6215332;23;20194;-78
2021/12/12 13:18:01;;;;;;;13.47;12.17;;;11.00;99.90;;;;;;6215188;23;20169;-78
2021/12/12 13:20:35;;;;;;;14.37;12.93;;;11.00;99.90;;;;;;6214758;23;20494;-77
2021/12/12 13:23:23;;;;;;;13.97;12.60;;;11.00;99.90;;;;;;6215174;23;20267;-77
2021/12/12 13:26:00;;;;;;;14.37;12.90;;;10.90;99.90;;;;;;6213476;23;20680;-76
2021/12/12 13:28:34;;;;;;;14.33;12.90;;;11.00;99.90;;;;;;6214574;23;20163;-75
2021/12/12 13:31:16;;;;;;;14.13;12.73;;;11.00;99.90;;;;;;6214537;23;20250;-77